Adriana — SXGS — position and weather

sailwx.info

Track history (hours):
 
Tides and Currents Weather Stations Pressure Air Temp Water Temp Dewpoint Dewpoint Depression Visibility Wind Speed Wind Dir Waves Ship Positions

Adriana

Last reported at 2017-Dec-11 17:00 UTC. Time now 2017-Dec-12 13:53 UTC.
Position N 37°58' E 023°35'.

Length 89 m; draft 7.8 m.

Type: Ship. MMSI: 240666000.

Date/timePositionNaut miles runAvg speedWind from/ knotsBaromVisibWave heightAir tempDewpointWater temp
2017-Dec-11 17:00N 37°58' E 023°35'0 0.0
2017-Dec-10 21:49N 37°58' E 023°35'1 2.2
2017-Dec-10 21:31N 37°57' E 023°35'4 7.6
2017-Dec-10 21:01N 37°54' E 023°33'1 2.3
2017-Dec-10 20:31N 37°53' E 023°32'0 0.0
2017-Dec-10 20:01N 37°53' E 023°32'0 0.0
2017-Dec-10 19:31N 37°53' E 023°32'0 0.0
2017-Dec-10 19:01N 37°53' E 023°32'0 0.1
2017-Dec-10 18:31N 37°53' E 023°32'2 4.9
2017-Dec-10 18:00N 37°55' E 023°33'3 5.8
2017-Dec-10 17:31N 37°58' E 023°33'4 8.1
2017-Dec-10 17:00N 38°01' E 023°35'1 1.2
2017-Dec-10 16:31N 38°02' E 023°36'0 0.0
2017-Dec-10 16:01N 38°02' E 023°36'0 0.0
2017-Dec-10 15:31N 38°02' E 023°36'0 0.0
2017-Dec-10 15:01N 38°02' E 023°36'0 0.2
2017-Dec-10 14:31N 38°02' E 023°36'1 1.9
2017-Dec-10 14:01N 38°02' E 023°35'0 0.0
2017-Dec-10 13:30N 38°02' E 023°35'0 0.0
2017-Dec-10 13:01N 38°02' E 023°35'0 1.0
2017-Dec-10 12:31N 38°01' E 023°35'4 7.9
2017-Dec-10 12:01N 37°58' E 023°33'2 4.8
2017-Dec-10 11:31N 37°58' E 023°36'0 0.4
2017-Dec-10 11:01N 37°57' E 023°36'0 0.0
2017-Dec-10 10:30N 37°57' E 023°36'0 0.0
2017-Dec-10 10:01N 37°57' E 023°36'0 0.0
2017-Dec-10 09:31N 37°57' E 023°36'0 0.0
2017-Dec-10 09:00N 37°57' E 023°36'0 0.0
2017-Dec-10 08:31N 37°57' E 023°36'0 0.0
2017-Dec-10 08:01N 37°57' E 023°36'0 0.0
2017-Dec-10 07:31N 37°57' E 023°36'0 0.0
2017-Dec-10 07:01N 37°57' E 023°36'0 0.0
2017-Dec-10 06:31N 37°57' E 023°36'0 0.0
2017-Dec-10 06:01N 37°57' E 023°36'2 4.4
2017-Dec-10 05:31N 37°55' E 023°34'4 8.3
2017-Dec-10 05:01N 37°53' E 023°30'4 8.4
2017-Dec-10 04:31N 37°52' E 023°25'4 8.9
2017-Dec-10 04:01N 37°53' E 023°19'5 9.0
2017-Dec-10 03:31N 37°53' E 023°14'4 8.7
2017-Dec-10 03:01N 37°54' E 023°08'3 5.2
2017-Dec-10 02:31N 37°55' E 023°05'0 0.0
2017-Dec-10 02:01N 37°55' E 023°05'0 0.0
2017-Dec-10 01:31N 37°55' E 023°05'0 0.0
2017-Dec-10 01:01N 37°55' E 023°05'0 0.0
2017-Dec-10 00:31N 37°55' E 023°05'0 0.0
2017-Dec-10 00:01N 37°55' E 023°05'0 0.0
2017-Dec-09 23:31N 37°55' E 023°05'0 0.0
2017-Dec-09 23:01N 37°55' E 023°05'0 0.0
2017-Dec-09 22:30N 37°55' E 023°05'0 0.0
2017-Dec-09 22:01N 37°55' E 023°05'0 0.0
2017-Dec-09 21:31N 37°55' E 023°05'0 0.0
2017-Dec-09 21:01N 37°55' E 023°05'0 0.0
2017-Dec-09 20:31N 37°55' E 023°05'0 0.0
2017-Dec-09 20:01N 37°55' E 023°05'0 0.0
2017-Dec-09 19:31N 37°55' E 023°05'0 0.0
2017-Dec-09 19:01N 37°55' E 023°05'0 0.0
2017-Dec-09 18:31N 37°55' E 023°05'0 0.0
2017-Dec-09 18:01N 37°55' E 023°05'0 0.0
2017-Dec-09 17:31N 37°55' E 023°05'0 0.0
2017-Dec-09 17:01N 37°55' E 023°05'0 0.0
2017-Dec-09 16:31N 37°55' E 023°05'0 0.0
2017-Dec-09 16:01N 37°55' E 023°05'0 0.0
2017-Dec-09 15:31N 37°55' E 023°05'0 0.0
2017-Dec-09 15:01N 37°55' E 023°05'0 0.0
2017-Dec-09 14:31N 37°55' E 023°05'1 1.1
2017-Dec-09 14:01N 37°55' E 023°06'0 0.7
2017-Dec-09 13:31N 37°55' E 023°06'0 0.0
2017-Dec-09 13:01N 37°55' E 023°06'0 0.0
2017-Dec-09 12:31N 37°55' E 023°06'0 0.0
2017-Dec-09 12:01N 37°55' E 023°06'0 0.0
2017-Dec-09 11:30N 37°55' E 023°06'0 0.1
2017-Dec-09 11:00N 37°55' E 023°06'0 0.0
2017-Dec-09 10:31N 37°55' E 023°06'0 0.1
2017-Dec-09 10:01N 37°55' E 023°06'0 0.1
2017-Dec-09 09:31N 37°55' E 023°06'0 0.1
2017-Dec-09 09:01N 37°55' E 023°06'0 0.0
2017-Dec-09 08:30N 37°55' E 023°06'0 0.1
2017-Dec-09 08:01N 37°55' E 023°06'0 0.1
2017-Dec-09 07:31N 37°55' E 023°06'0 0.1
2017-Dec-09 07:01N 37°55' E 023°06'0 0.0
2017-Dec-09 06:31N 37°55' E 023°06'0 0.0
2017-Dec-09 06:01N 37°55' E 023°06'0 0.0
2017-Dec-09 05:31N 37°55' E 023°06'0 0.1
2017-Dec-09 05:01N 37°55' E 023°06'0 0.0
2017-Dec-09 04:31N 37°55' E 023°06'0 0.0
2017-Dec-09 04:01N 37°55' E 023°06'0 0.0
2017-Dec-09 03:31N 37°55' E 023°06'0 0.0
2017-Dec-09 03:01N 37°55' E 023°06'0 0.0
2017-Dec-09 02:31N 37°55' E 023°06'0 0.0
2017-Dec-09 02:01N 37°55' E 023°06'0 0.0
2017-Dec-09 01:31N 37°55' E 023°06'0 0.0
2017-Dec-09 01:00N 37°55' E 023°06'0 0.0
2017-Dec-09 00:31N 37°55' E 023°06'0 0.0
2017-Dec-09 00:01N 37°55' E 023°06'0 0.0
2017-Dec-08 23:31N 37°55' E 023°06'0 0.0
2017-Dec-08 23:01N 37°55' E 023°06'0 0.1
2017-Dec-08 22:31N 37°55' E 023°06'0 0.0
2017-Dec-08 22:01N 37°55' E 023°06'0 0.0
2017-Dec-08 21:31N 37°55' E 023°06'0 0.1
2017-Dec-08 21:01N 37°55' E 023°06'1 2.6
2017-Dec-08 20:31N 37°55' E 023°08'4 8.7
2017-Dec-08 20:01N 37°54' E 023°13'4 8.6
2017-Dec-08 19:30N 37°53' E 023°19'4 8.9
2017-Dec-08 19:01N 37°52' E 023°24'4 8.7
2017-Dec-08 18:31N 37°53' E 023°30'4 8.9
2017-Dec-08 18:01N 37°55' E 023°34'2 4.4
2017-Dec-08 17:31N 37°58' E 023°35'0 0.0
2017-Dec-08 17:00N 37°58' E 023°35'0 0.0
2017-Dec-06 21:17N 37°58' E 023°35'1 2.1
2017-Dec-06 21:01N 37°57' E 023°35'  
2017-Dec-04 10:30N 37°52' E 023°31'0 0.3
2017-Dec-04 10:00N 37°52' E 023°31'0 0.1
2017-Dec-04 09:30N 37°52' E 023°31'0 0.1
2017-Dec-04 09:00N 37°52' E 023°31'0 0.2
2017-Dec-04 08:30N 37°52' E 023°31'0 0.1
2017-Dec-04 08:01N 37°52' E 023°31'1 1.0
2017-Dec-04 07:30N 37°52' E 023°31'5 9.0
2017-Dec-04 07:00N 37°55' E 023°35'2 4.3
2017-Dec-04 06:30N 37°58' E 023°35'0 0.0
2017-Dec-03 17:23N 37°58' E 023°35'1 1.8
2017-Dec-03 17:00N 37°57' E 023°34'3 6.8
2017-Dec-03 16:31N 38°01' E 023°34'2 3.1
2017-Dec-03 16:00N 38°02' E 023°36'0 0.0
2017-Dec-03 15:30N 38°02' E 023°36'0 0.0
2017-Dec-03 15:00N 38°02' E 023°36'0 0.0
2017-Dec-03 14:30N 38°02' E 023°36'0 0.0
2017-Dec-03 14:01N 38°02' E 023°36'0 0.2
2017-Dec-03 13:30N 38°02' E 023°36'0 0.9
2017-Dec-03 13:00N 38°02' E 023°35'0 0.0
2017-Dec-03 12:30N 38°02' E 023°35'2 4.7
2017-Dec-03 12:00N 37°60' E 023°33'3 5.3
2017-Dec-03 11:30N 37°57' E 023°35'0 0.4
2017-Dec-03 11:00N 37°58' E 023°35'0 0.0
2017-Dec-02 09:20N 37°58' E 023°35'0 0.0
2017-Dec-02 09:00N 37°58' E 023°35'0 0.0
2017-Dec-02 08:30N 37°58' E 023°35'0 0.0
2017-Dec-02 08:00N 37°58' E 023°35'0 0.0
2017-Dec-02 07:30N 37°58' E 023°35'0 0.0
2017-Dec-02 07:00N 37°58' E 023°35'0 0.9
2017-Dec-02 06:30N 37°57' E 023°34'3 6.2
2017-Dec-02 06:00N 38°00' E 023°33'2 3.9
2017-Dec-02 05:30N 38°02' E 023°35'0 0.0
2017-Dec-02 05:00N 38°02' E 023°35'0 0.0
2017-Dec-02 04:30N 38°02' E 023°35'0 0.0
2017-Dec-02 04:00N 38°02' E 023°35'0 0.0
2017-Dec-02 03:30N 38°02' E 023°35'0 0.0
2017-Dec-02 03:00N 38°02' E 023°35'0 0.0
2017-Dec-02 02:30N 38°02' E 023°35'0 0.0
2017-Dec-02 02:00N 38°02' E 023°35'0 0.2
2017-Dec-02 01:30N 38°02' E 023°35'1 1.4
2017-Dec-02 01:00N 38°02' E 023°36'0 0.0
2017-Dec-02 00:30N 38°02' E 023°36'0 0.0
2017-Dec-02 00:00N 38°02' E 023°36'0 0.0
2017-Dec-01 23:30N 38°02' E 023°36'0 0.0
2017-Dec-01 23:00N 38°02' E 023°36'0 0.0
2017-Dec-01 22:30N 38°02' E 023°36'0 0.0
2017-Dec-01 22:00N 38°02' E 023°36'0 0.0
2017-Dec-01 21:30N 38°02' E 023°36'0 0.0
2017-Dec-01 21:00N 38°02' E 023°36'0 0.0
2017-Dec-01 20:30N 38°02' E 023°36'0 0.0
2017-Dec-01 20:01N 38°02' E 023°36'0 0.0
2017-Dec-01 19:30N 38°02' E 023°36'1 1.2
2017-Dec-01 19:00N 38°02' E 023°35'0 0.0
2017-Dec-01 18:30N 38°02' E 023°35'0 0.0
2017-Dec-01 18:00N 38°02' E 023°35'0 0.0
2017-Dec-01 17:30N 38°02' E 023°35'0 0.0
2017-Dec-01 17:00N 38°02' E 023°35'  
Track history (hours):
 
Tides and Currents Weather Stations Pressure Air Temp Water Temp Dewpoint Dewpoint Depression Visibility Wind Speed Wind Dir Waves Ship Positions

Adriana

Last reported at 2017-Dec-11 17:00 UTC. Time now 2017-Dec-12 13:53 UTC.
Position N 37°58' E 023°35'.

Length 89 m; draft 7.8 m.

Type: Ship. MMSI: 240666000.

Date/timePositionNaut miles runAvg speedWind from/ knotsBaromVisibWave heightAir tempDewpointWater temp
2017-Dec-11 17:00N 37°58' E 023°35'0 0.0
2017-Dec-10 21:49N 37°58' E 023°35'1 2.2
2017-Dec-10 21:31N 37°57' E 023°35'4 7.6
2017-Dec-10 21:01N 37°54' E 023°33'1 2.3
2017-Dec-10 20:31N 37°53' E 023°32'0 0.0
2017-Dec-10 20:01N 37°53' E 023°32'0 0.0
2017-Dec-10 19:31N 37°53' E 023°32'0 0.0
2017-Dec-10 19:01N 37°53' E 023°32'0 0.1
2017-Dec-10 18:31N 37°53' E 023°32'2 4.9
2017-Dec-10 18:00N 37°55' E 023°33'3 5.8
2017-Dec-10 17:31N 37°58' E 023°33'4 8.1
2017-Dec-10 17:00N 38°01' E 023°35'1 1.2
2017-Dec-10 16:31N 38°02' E 023°36'0 0.0
2017-Dec-10 16:01N 38°02' E 023°36'0 0.0
2017-Dec-10 15:31N 38°02' E 023°36'0 0.0
2017-Dec-10 15:01N 38°02' E 023°36'0 0.2
2017-Dec-10 14:31N 38°02' E 023°36'1 1.9
2017-Dec-10 14:01N 38°02' E 023°35'0 0.0
2017-Dec-10 13:30N 38°02' E 023°35'0 0.0
2017-Dec-10 13:01N 38°02' E 023°35'0 1.0
2017-Dec-10 12:31N 38°01' E 023°35'4 7.9
2017-Dec-10 12:01N 37°58' E 023°33'2 4.8
2017-Dec-10 11:31N 37°58' E 023°36'0 0.4
2017-Dec-10 11:01N 37°57' E 023°36'0 0.0
2017-Dec-10 10:30N 37°57' E 023°36'0 0.0
2017-Dec-10 10:01N 37°57' E 023°36'0 0.0
2017-Dec-10 09:31N 37°57' E 023°36'0 0.0
2017-Dec-10 09:00N 37°57' E 023°36'0 0.0
2017-Dec-10 08:31N 37°57' E 023°36'0 0.0
2017-Dec-10 08:01N 37°57' E 023°36'0 0.0
2017-Dec-10 07:31N 37°57' E 023°36'0 0.0
2017-Dec-10 07:01N 37°57' E 023°36'0 0.0
2017-Dec-10 06:31N 37°57' E 023°36'0 0.0
2017-Dec-10 06:01N 37°57' E 023°36'2 4.4
2017-Dec-10 05:31N 37°55' E 023°34'4 8.3
2017-Dec-10 05:01N 37°53' E 023°30'4 8.4
2017-Dec-10 04:31N 37°52' E 023°25'4 8.9
2017-Dec-10 04:01N 37°53' E 023°19'5 9.0
2017-Dec-10 03:31N 37°53' E 023°14'4 8.7
2017-Dec-10 03:01N 37°54' E 023°08'3 5.2
2017-Dec-10 02:31N 37°55' E 023°05'0 0.0
2017-Dec-10 02:01N 37°55' E 023°05'0 0.0
2017-Dec-10 01:31N 37°55' E 023°05'0 0.0
2017-Dec-10 01:01N 37°55' E 023°05'0 0.0
2017-Dec-10 00:31N 37°55' E 023°05'0 0.0
2017-Dec-10 00:01N 37°55' E 023°05'0 0.0
2017-Dec-09 23:31N 37°55' E 023°05'0 0.0
2017-Dec-09 23:01N 37°55' E 023°05'0 0.0
2017-Dec-09 22:30N 37°55' E 023°05'0 0.0
2017-Dec-09 22:01N 37°55' E 023°05'0 0.0
2017-Dec-09 21:31N 37°55' E 023°05'0 0.0
2017-Dec-09 21:01N 37°55' E 023°05'0 0.0
2017-Dec-09 20:31N 37°55' E 023°05'0 0.0
2017-Dec-09 20:01N 37°55' E 023°05'0 0.0
2017-Dec-09 19:31N 37°55' E 023°05'0 0.0
2017-Dec-09 19:01N 37°55' E 023°05'0 0.0
2017-Dec-09 18:31N 37°55' E 023°05'0 0.0
2017-Dec-09 18:01N 37°55' E 023°05'0 0.0
2017-Dec-09 17:31N 37°55' E 023°05'0 0.0
2017-Dec-09 17:01N 37°55' E 023°05'0 0.0
2017-Dec-09 16:31N 37°55' E 023°05'0 0.0
2017-Dec-09 16:01N 37°55' E 023°05'0 0.0
2017-Dec-09 15:31N 37°55' E 023°05'0 0.0
2017-Dec-09 15:01N 37°55' E 023°05'0 0.0
2017-Dec-09 14:31N 37°55' E 023°05'1 1.1
2017-Dec-09 14:01N 37°55' E 023°06'0 0.7
2017-Dec-09 13:31N 37°55' E 023°06'0 0.0
2017-Dec-09 13:01N 37°55' E 023°06'0 0.0
2017-Dec-09 12:31N 37°55' E 023°06'0 0.0
2017-Dec-09 12:01N 37°55' E 023°06'0 0.0
2017-Dec-09 11:30N 37°55' E 023°06'0 0.1
2017-Dec-09 11:00N 37°55' E 023°06'0 0.0
2017-Dec-09 10:31N 37°55' E 023°06'0 0.1
2017-Dec-09 10:01N 37°55' E 023°06'0 0.1
2017-Dec-09 09:31N 37°55' E 023°06'0 0.1
2017-Dec-09 09:01N 37°55' E 023°06'0 0.0
2017-Dec-09 08:30N 37°55' E 023°06'0 0.1
2017-Dec-09 08:01N 37°55' E 023°06'0 0.1
2017-Dec-09 07:31N 37°55' E 023°06'0 0.1
2017-Dec-09 07:01N 37°55' E 023°06'0 0.0
2017-Dec-09 06:31N 37°55' E 023°06'0 0.0
2017-Dec-09 06:01N 37°55' E 023°06'0 0.0
2017-Dec-09 05:31N 37°55' E 023°06'0 0.1
2017-Dec-09 05:01N 37°55' E 023°06'0 0.0
2017-Dec-09 04:31N 37°55' E 023°06'0 0.0
2017-Dec-09 04:01N 37°55' E 023°06'0 0.0
2017-Dec-09 03:31N 37°55' E 023°06'0 0.0
2017-Dec-09 03:01N 37°55' E 023°06'0 0.0
2017-Dec-09 02:31N 37°55' E 023°06'0 0.0
2017-Dec-09 02:01N 37°55' E 023°06'0 0.0
2017-Dec-09 01:31N 37°55' E 023°06'0 0.0
2017-Dec-09 01:00N 37°55' E 023°06'0 0.0
2017-Dec-09 00:31N 37°55' E 023°06'0 0.0
2017-Dec-09 00:01N 37°55' E 023°06'0 0.0
2017-Dec-08 23:31N 37°55' E 023°06'0 0.0
2017-Dec-08 23:01N 37°55' E 023°06'0 0.1
2017-Dec-08 22:31N 37°55' E 023°06'0 0.0
2017-Dec-08 22:01N 37°55' E 023°06'0 0.0
2017-Dec-08 21:31N 37°55' E 023°06'0 0.1
2017-Dec-08 21:01N 37°55' E 023°06'1 2.6
2017-Dec-08 20:31N 37°55' E 023°08'4 8.7
2017-Dec-08 20:01N 37°54' E 023°13'4 8.6
2017-Dec-08 19:30N 37°53' E 023°19'4 8.9
2017-Dec-08 19:01N 37°52' E 023°24'4 8.7
2017-Dec-08 18:31N 37°53' E 023°30'4 8.9
2017-Dec-08 18:01N 37°55' E 023°34'2 4.4
2017-Dec-08 17:31N 37°58' E 023°35'0 0.0
2017-Dec-08 17:00N 37°58' E 023°35'0 0.0
2017-Dec-06 21:17N 37°58' E 023°35'1 2.1
2017-Dec-06 21:01N 37°57' E 023°35'  
2017-Dec-04 10:30N 37°52' E 023°31'0 0.3
2017-Dec-04 10:00N 37°52' E 023°31'0 0.1
2017-Dec-04 09:30N 37°52' E 023°31'0 0.1
2017-Dec-04 09:00N 37°52' E 023°31'0 0.2
2017-Dec-04 08:30N 37°52' E 023°31'0 0.1
2017-Dec-04 08:01N 37°52' E 023°31'1 1.0
2017-Dec-04 07:30N 37°52' E 023°31'5 9.0
2017-Dec-04 07:00N 37°55' E 023°35'2 4.3
2017-Dec-04 06:30N 37°58' E 023°35'0 0.0
2017-Dec-03 17:23N 37°58' E 023°35'1 1.8
2017-Dec-03 17:00N 37°57' E 023°34'3 6.8
2017-Dec-03 16:31N 38°01' E 023°34'2 3.1
2017-Dec-03 16:00N 38°02' E 023°36'0 0.0
2017-Dec-03 15:30N 38°02' E 023°36'0 0.0
2017-Dec-03 15:00N 38°02' E 023°36'0 0.0
2017-Dec-03 14:30N 38°02' E 023°36'0 0.0
2017-Dec-03 14:01N 38°02' E 023°36'0 0.2
2017-Dec-03 13:30N 38°02' E 023°36'0 0.9
2017-Dec-03 13:00N 38°02' E 023°35'0 0.0
2017-Dec-03 12:30N 38°02' E 023°35'2 4.7
2017-Dec-03 12:00N 37°60' E 023°33'3 5.3
2017-Dec-03 11:30N 37°57' E 023°35'0 0.4
2017-Dec-03 11:00N 37°58' E 023°35'0 0.0
2017-Dec-02 09:20N 37°58' E 023°35'0 0.0
2017-Dec-02 09:00N 37°58' E 023°35'0 0.0
2017-Dec-02 08:30N 37°58' E 023°35'0 0.0
2017-Dec-02 08:00N 37°58' E 023°35'0 0.0
2017-Dec-02 07:30N 37°58' E 023°35'0 0.0
2017-Dec-02 07:00N 37°58' E 023°35'0 0.9
2017-Dec-02 06:30N 37°57' E 023°34'3 6.2
2017-Dec-02 06:00N 38°00' E 023°33'2 3.9
2017-Dec-02 05:30N 38°02' E 023°35'0 0.0
2017-Dec-02 05:00N 38°02' E 023°35'0 0.0
2017-Dec-02 04:30N 38°02' E 023°35'0 0.0
2017-Dec-02 04:00N 38°02' E 023°35'0 0.0
2017-Dec-02 03:30N 38°02' E 023°35'0 0.0
2017-Dec-02 03:00N 38°02' E 023°35'0 0.0
2017-Dec-02 02:30N 38°02' E 023°35'0 0.0
2017-Dec-02 02:00N 38°02' E 023°35'0 0.2
2017-Dec-02 01:30N 38°02' E 023°35'1 1.4
2017-Dec-02 01:00N 38°02' E 023°36'0 0.0
2017-Dec-02 00:30N 38°02' E 023°36'0 0.0
2017-Dec-02 00:00N 38°02' E 023°36'0 0.0
2017-Dec-01 23:30N 38°02' E 023°36'0 0.0
2017-Dec-01 23:00N 38°02' E 023°36'0 0.0
2017-Dec-01 22:30N 38°02' E 023°36'0 0.0
2017-Dec-01 22:00N 38°02' E 023°36'0 0.0
2017-Dec-01 21:30N 38°02' E 023°36'0 0.0
2017-Dec-01 21:00N 38°02' E 023°36'0 0.0
2017-Dec-01 20:30N 38°02' E 023°36'0 0.0
2017-Dec-01 20:01N 38°02' E 023°36'0 0.0
2017-Dec-01 19:30N 38°02' E 023°36'1 1.2
2017-Dec-01 19:00N 38°02' E 023°35'0 0.0
2017-Dec-01 18:30N 38°02' E 023°35'0 0.0
2017-Dec-01 18:00N 38°02' E 023°35'0 0.0
2017-Dec-01 17:30N 38°02' E 023°35'0 0.0
2017-Dec-01 17:00N 38°02' E 023°35'  

Dump ship's entire track history